Time;durP1;ratioP1;P1;durP2;ratioP2;P2;SDS_P1;SDS_P2;PMS_P1;PMS_P2;Temp;Humidity;BMP_temperature;BMP_pressure;BME280_temperature;BME280_humidity;BME280_pressure;Samples;Min_cycle;Max_cycle;Signal;HPM_P1;HPM_P2
2022/09/05 00:02:36;;;;;;;7.03;4.28;;;;;;;-140.66;100.00;55571.53;5034191;28;20426;-71
2022/09/05 00:05:46;;;;;;;5.85;4.90;;;;;;;-140.66;100.00;55571.53;5019484;28;20037;-72
2022/09/05 00:09:05;;;;;;;5.68;4.88;;;;;;;-140.66;100.00;55571.53;5033449;28;20021;-72
2022/09/05 00:11:59;;;;;;;7.63;4.57;;;;;;;-140.66;100.00;55571.53;5034613;28;20104;-72
2022/09/05 00:14:51;;;;;;;9.80;4.20;;;;;;;-140.66;100.00;55571.53;5032425;28;20043;-71
2022/09/05 00:18:04;;;;;;;5.65;4.78;;;;;;;-140.66;100.00;55571.53;5032812;28;20034;-72
2022/09/05 00:21:18;;;;;;;6.45;4.90;;;;;;;-140.66;100.00;55571.53;5034338;28;20033;-72
2022/09/05 00:24:19;;;;;;;5.95;4.55;;;;;;;-140.66;100.00;55571.53;5019075;28;20025;-73
2022/09/05 00:27:16;;;;;;;6.30;5.00;;;;;;;-140.66;100.00;55571.53;5035823;28;20039;-72
2022/09/05 00:30:15;;;;;;;5.57;4.35;;;;;;;-140.66;100.00;55571.53;5037388;28;20025;-72
2022/09/05 00:33:23;;;;;;;7.53;4.63;;;;;;;-140.66;100.00;55571.53;5022716;28;20124;-72
2022/09/05 00:36:25;;;;;;;5.63;5.00;;;;;;;-140.66;100.00;55571.53;5037814;28;20021;-72
2022/09/05 00:39:20;;;;;;;6.00;5.28;;;;;;;-140.66;100.00;55571.53;5023837;28;20022;-72
2022/09/05 00:42:14;;;;;;;6.40;5.00;;;;;;;-140.66;100.00;55571.53;5036906;28;20037;-72
2022/09/05 00:45:02;;;;;;;7.70;4.90;;;;;;;-140.66;100.00;55571.53;5036743;28;20026;-72
2022/09/05 00:48:29;;;;;;;11.15;4.90;;;;;;;-140.66;100.00;55571.53;5036578;28;20472;-73
2022/09/05 00:51:19;;;;;;;7.30;5.03;;;;;;;-140.66;100.00;55571.53;5002310;28;20037;-71
2022/09/05 00:54:44;;;;;;;6.85;5.03;;;;;;;-140.66;100.00;55571.53;5037424;28;20041;-71
2022/09/05 00:57:53;;;;;;;7.55;5.47;;;;;;;-140.66;100.00;55571.53;5022775;28;20045;-71
2022/09/05 01:00:54;;;;;;;8.15;5.25;;;;;;;-140.66;100.00;55571.53;5036445;28;20044;-71
2022/09/05 01:04:24;;;;;;;9.75;5.70;;;;;;;-140.66;100.00;55571.53;5036805;28;20036;-71
2022/09/05 01:07:48;;;;;;;7.45;5.70;;;;;;;-140.66;100.00;55571.53;5036409;28;20040;-71
2022/09/05 01:10:57;;;;;;;8.25;5.13;;;;;;;-140.66;100.00;55571.53;5011760;28;20038;-71
2022/09/05 01:14:20;;;;;;;14.35;5.78;;;;;;;-140.66;100.00;55571.53;5036350;28;20061;-72
2022/09/05 01:17:27;;;;;;;8.02;5.60;;;;;;;-140.66;100.00;55571.53;5023107;28;20037;-72
2022/09/05 01:21:10;;;;;;;9.85;5.68;;;;;;;-140.66;100.00;55571.53;5036312;28;20096;-72
2022/09/05 01:24:35;;;;;;;8.20;5.20;;;;;;;-140.66;100.00;55571.53;5021237;28;20362;-72
2022/09/05 01:27:52;;;;;;;10.80;5.57;;;;;;;-140.66;100.00;55571.53;5036235;28;20044;-72
2022/09/05 01:31:05;;;;;;;6.18;5.10;;;;;;;-140.66;100.00;55571.53;5036679;28;20037;-72
2022/09/05 01:34:25;;;;;;;7.28;5.47;;;;;;;-140.66;100.00;55571.53;5035682;28;20021;-72
2022/09/05 01:37:47;;;;;;;7.10;5.13;;;;;;;-140.66;100.00;55571.53;5034808;28;20013;-71
2022/09/05 01:40:48;;;;;;;7.25;5.35;;;;;;;-140.66;100.00;55571.53;4993925;28;20120;-72
2022/09/05 01:44:11;;;;;;;7.75;5.50;;;;;;;-140.66;100.00;55571.53;5036242;28;20029;-72
2022/09/05 01:47:23;;;;;;;7.50;5.53;;;;;;;-140.66;100.00;55571.53;5035794;28;20025;-72
2022/09/05 01:50:31;;;;;;;8.02;5.18;;;;;;;-140.66;100.00;55571.53;5035714;28;20394;-71
2022/09/05 01:53:44;;;;;;;7.82;5.57;;;;;;;-140.66;100.00;55571.53;5034076;28;20370;-71
2022/09/05 01:56:33;;;;;;;9.90;5.88;;;;;;;-140.66;100.00;55571.53;5047126;28;20091;-71
2022/09/05 01:59:43;;;;;;;7.40;5.38;;;;;;;-140.66;100.00;55571.53;5054643;28;20369;-72
2022/09/05 02:02:50;;;;;;;10.35;5.75;;;;;;;-140.66;100.00;55571.53;5055114;28;20178;-72
2022/09/05 02:05:49;;;;;;;7.75;5.72;;;;;;;-140.66;100.00;55571.53;5055676;28;20082;-72
2022/09/05 02:08:44;;;;;;;15.00;6.10;;;;;;;-140.66;100.00;55571.53;5055930;28;20036;-72
2022/09/05 02:11:42;;;;;;;9.93;5.85;;;;;;;-140.66;100.00;55571.53;5054907;28;20025;-72
2022/09/05 02:14:43;;;;;;;9.48;5.75;;;;;;;-140.66;100.00;55571.53;5040620;28;20440;-72
2022/09/05 02:17:43;;;;;;;8.98;5.53;;;;;;;-140.66;100.00;55571.53;5055873;28;20033;-72
2022/09/05 02:20:45;;;;;;;9.10;5.88;;;;;;;-140.66;100.00;55571.53;5054648;28;20029;-72
2022/09/05 02:23:49;;;;;;;7.65;5.88;;;;;;;-140.66;100.00;55571.53;5054423;28;20029;-72
2022/09/05 02:26:44;;;;;;;10.32;6.65;;;;;;;-140.66;100.00;55571.53;5055096;28;20457;-72
2022/09/05 02:29:54;;;;;;;8.25;5.70;;;;;;;-140.66;100.00;55571.53;5054590;28;20124;-71
2022/09/05 02:32:50;;;;;;;9.77;6.10;;;;;;;-140.66;100.00;55571.53;5039894;28;20073;-71
2022/09/05 02:35:45;;;;;;;8.25;6.15;;;;;;;-140.66;100.00;55571.53;5053688;28;20063;-72
2022/09/05 02:38:43;;;;;;;9.98;5.85;;;;;;;-140.66;100.00;55571.53;5054048;28;20116;-72
2022/09/05 02:41:31;;;;;;;10.30;6.30;;;;;;;-140.66;100.00;55571.53;5055459;28;20029;-71
2022/09/05 02:44:29;;;;;;;9.95;6.55;;;;;;;-140.66;100.00;55571.53;5053869;28;20093;-71
2022/09/05 02:47:46;;;;;;;9.25;6.40;;;;;;;-140.66;100.00;55571.53;5053936;28;20060;-72
2022/09/05 02:50:50;;;;;;;9.45;6.40;;;;;;;-140.66;100.00;55571.53;5054139;28;20086;-72
2022/09/05 02:53:41;;;;;;;9.27;6.72;;;;;;;-140.66;100.00;55571.53;5055032;28;20441;-72
2022/09/05 02:56:56;;;;;;;8.68;6.50;;;;;;;-140.66;100.00;55571.53;5053521;28;20114;-72
2022/09/05 03:00:00;;;;;;;8.23;6.75;;;;;;;-140.66;100.00;55571.53;5016519;28;20056;-71
2022/09/05 03:03:17;;;;;;;12.18;6.97;;;;;;;-140.66;100.00;55571.53;5039773;28;20445;-72
2022/09/05 03:06:27;;;;;;;10.95;6.82;;;;;;;-140.66;100.00;55571.53;5054185;28;20357;-72
2022/09/05 03:09:28;;;;;;;9.35;6.35;;;;;;;-140.66;100.00;55571.53;5053969;28;20021;-72
2022/09/05 03:12:37;;;;;;;11.60;6.97;;;;;;;-140.66;100.00;55571.53;5053402;28;20036;-72
2022/09/05 03:16:07;;;;;;;8.55;6.47;;;;;;;-140.66;100.00;55571.53;5018434;28;20123;-72
2022/09/05 03:19:22;;;;;;;8.70;6.55;;;;;;;-140.66;100.00;55571.53;5053256;28;20017;-71
2022/09/05 03:22:21;;;;;;;11.02;6.88;;;;;;;-140.66;100.00;55571.53;4981490;28;20457;-72
2022/09/05 03:25:25;;;;;;;12.98;7.22;;;;;;;-140.66;100.00;55571.53;5053425;28;20033;-72
2022/09/05 03:28:40;;;;;;;13.00;7.25;;;;;;;-140.66;100.00;55571.53;5054464;28;20029;-72
2022/09/05 03:31:57;;;;;;;9.18;6.95;;;;;;;-140.66;100.00;55571.53;5053197;28;20366;-72
2022/09/05 03:35:11;;;;;;;11.15;7.53;;;;;;;-140.66;100.00;55571.53;5053293;28;20035;-72
2022/09/05 03:38:42;;;;;;;10.30;7.50;;;;;;;-140.66;100.00;55571.53;5040077;28;20040;-72
2022/09/05 03:41:48;;;;;;;13.23;7.47;;;;;;;-140.66;100.00;55571.53;5053359;28;20102;-72
2022/09/05 03:44:59;;;;;;;11.70;7.55;;;;;;;-140.66;100.00;55571.53;5053119;28;20055;-73
2022/09/05 03:48:02;;;;;;;14.40;6.88;;;;;;;-140.66;100.00;55571.53;5054769;28;20029;-72
2022/09/05 03:51:07;;;;;;;13.77;8.38;;;;;;;-140.66;100.00;55571.53;5052948;28;20428;-72
2022/09/05 03:54:08;;;;;;;10.18;7.80;;;;;;;-140.66;100.00;55571.53;5053072;28;20029;-72
2022/09/05 03:56:54;;;;;;;10.57;7.93;;;;;;;-140.66;100.00;55571.53;5054084;28;20089;-72
2022/09/05 03:59:46;;;;;;;11.65;7.80;;;;;;;-140.66;100.00;55571.53;5054285;28;20385;-72
2022/09/05 04:02:36;;;;;;;12.00;7.80;;;;;;;-140.66;100.00;55571.53;5057043;28;20029;-72
2022/09/05 04:05:41;;;;;;;12.25;8.38;;;;;;;-140.66;100.00;55571.53;5056899;28;20040;-72
2022/09/05 04:08:52;;;;;;;10.98;8.77;;;;;;;-140.66;100.00;55571.53;5057505;28;20039;-71
2022/09/05 04:11:49;;;;;;;10.70;8.65;;;;;;;-140.66;100.00;55571.53;5057262;28;20391;-72
2022/09/05 04:14:50;;;;;;;10.40;8.48;;;;;;;-140.66;100.00;55571.53;5042739;28;20076;-72
2022/09/05 04:17:42;;;;;;;11.52;8.30;;;;;;;-140.66;100.00;55571.53;5057881;28;20033;-72
2022/09/05 04:20:50;;;;;;;13.85;9.07;;;;;;;-140.66;100.00;55571.53;5042914;28;20029;-71
2022/09/05 04:23:50;;;;;;;13.55;8.13;;;;;;;-140.66;100.00;55571.53;5042578;28;20048;-72
2022/09/05 04:26:54;;;;;;;17.33;8.52;;;;;;;-140.66;100.00;55571.53;5057782;28;20085;-71
2022/09/05 04:29:58;;;;;;;17.20;9.35;;;;;;;-140.66;100.00;55571.53;5056867;28;20021;-71
2022/09/05 04:32:52;;;;;;;13.25;9.05;;;;;;;-140.66;100.00;55571.53;5056502;28;20025;-72
2022/09/05 04:36:19;;;;;;;11.13;8.60;;;;;;;-140.66;100.00;55571.53;5041842;28;20115;-71
2022/09/05 04:39:17;;;;;;;10.15;8.07;;;;;;;-140.66;100.00;55571.53;4959576;28;20341;-72
2022/09/05 04:42:22;;;;;;;13.02;8.35;;;;;;;-140.66;100.00;55571.53;5057283;28;20040;-72
2022/09/05 04:45:13;;;;;;;12.10;7.63;;;;;;;-140.66;100.00;55571.53;5057176;28;20059;-72
2022/09/05 04:48:04;;;;;;;13.25;7.88;;;;;;;-140.66;100.00;55571.53;5057743;28;20039;-71
2022/09/05 04:51:06;;;;;;;13.43;7.85;;;;;;;-140.66;100.00;55571.53;5056121;28;20051;-72
2022/09/05 04:54:13;;;;;;;10.73;7.50;;;;;;;-140.66;100.00;55571.53;5056112;28;20032;-71
2022/09/05 04:57:12;;;;;;;11.27;8.95;;;;;;;-140.66;100.00;55571.53;5056999;28;20440;-72
2022/09/05 05:00:06;;;;;;;15.25;9.10;;;;;;;-140.66;100.00;55571.53;5042377;28;20207;-73
2022/09/05 05:02:56;;;;;;;14.68;9.52;;;;;;;-140.66;100.00;55571.53;5056020;28;20047;-73
2022/09/05 05:05:48;;;;;;;14.93;9.30;;;;;;;-140.66;100.00;55571.53;5057405;28;20434;-72
2022/09/05 05:08:53;;;;;;;19.17;11.77;;;;;;;-140.66;100.00;55571.53;5056364;28;20412;-71
2022/09/05 05:11:39;;;;;;;16.33;11.75;;;;;;;-140.66;100.00;55571.53;5055235;28;20036;-72
2022/09/05 05:14:32;;;;;;;16.65;11.63;;;;;;;-140.66;100.00;55571.53;5041043;28;20457;-72
2022/09/05 05:17:28;;;;;;;15.77;11.13;;;;;;;-140.66;100.00;55571.53;5056224;28;20124;-72
2022/09/05 05:20:40;;;;;;;16.23;11.38;;;;;;;-140.66;100.00;55571.53;5056369;28;20434;-72
2022/09/05 05:23:37;;;;;;;16.63;10.82;;;;;;;-140.66;100.00;55571.53;5041066;28;20037;-72
2022/09/05 05:26:23;;;;;;;15.93;11.02;;;;;;;-140.66;100.00;55571.53;5055400;28;20025;-71
2022/09/05 05:29:33;;;;;;;13.95;10.40;;;;;;;-140.66;100.00;55571.53;5040786;28;20025;-72
2022/09/05 05:32:32;;;;;;;14.55;9.65;;;;;;;-140.66;100.00;55571.53;5056268;28;20029;-72
2022/09/05 05:35:25;;;;;;;14.65;9.68;;;;;;;-140.66;100.00;55571.53;5055687;28;20029;-72
2022/09/05 05:38:39;;;;;;;14.93;9.98;;;;;;;-140.66;100.00;55571.53;5055622;28;20029;-72
2022/09/05 05:41:49;;;;;;;15.73;10.77;;;;;;;-140.66;100.00;55571.53;5055072;28;20436;-72
2022/09/05 05:44:37;;;;;;;14.95;10.23;;;;;;;-140.66;100.00;55571.53;5056285;28;20369;-71
2022/09/05 05:47:43;;;;;;;17.83;10.95;;;;;;;-140.66;100.00;55571.53;5055684;28;20029;-71
2022/09/05 05:51:13;;;;;;;15.73;10.70;;;;;;;-140.66;100.00;55571.53;5055189;28;20080;-73
2022/09/05 05:54:13;;;;;;;13.88;10.05;;;;;;;-140.66;100.00;55571.53;4963677;28;20049;-72
2022/09/05 05:57:21;;;;;;;13.05;9.88;;;;;;;-140.66;100.00;55571.53;5054807;28;20373;-72
2022/09/05 06:00:42;;;;;;;14.75;10.75;;;;;;;-140.66;100.00;55571.53;5055923;28;20086;-73
2022/09/05 06:03:46;;;;;;;16.50;11.07;;;;;;;-140.66;100.00;55571.53;5034598;28;20099;-72
2022/09/05 06:07:09;;;;;;;14.52;9.65;;;;;;;-140.66;100.00;55571.53;5055215;28;20032;-72
2022/09/05 06:10:33;;;;;;;13.40;9.63;;;;;;;-140.66;100.00;55571.53;5056354;28;20029;-72
2022/09/05 06:13:38;;;;;;;17.27;10.50;;;;;;;-140.66;100.00;55571.53;5055516;28;20366;-72
2022/09/05 06:16:36;;;;;;;13.98;9.73;;;;;;;-140.66;100.00;55571.53;5055593;28;20116;-72
2022/09/05 06:20:13;;;;;;;15.05;9.30;;;;;;;-140.66;100.00;55571.53;5055692;28;20373;-73
2022/09/05 06:23:30;;;;;;;15.35;9.95;;;;;;;-140.66;100.00;55571.53;5054583;28;20028;-72
2022/09/05 06:26:48;;;;;;;15.18;10.65;;;;;;;-140.66;100.00;55571.53;5054319;28;20029;-72
2022/09/05 06:29:49;;;;;;;16.05;9.82;;;;;;;-140.66;100.00;55571.53;5040796;28;20390;-72
2022/09/05 06:33:19;;;;;;;13.30;9.48;;;;;;;-140.66;100.00;55571.53;5054320;28;20025;-72
2022/09/05 06:36:22;;;;;;;18.08;9.45;;;;;;;-140.66;100.00;55571.53;5054432;28;20035;-72
2022/09/05 06:39:21;;;;;;;13.77;8.60;;;;;;;-140.66;100.00;55571.53;5054575;28;20028;-73
2022/09/05 06:42:39;;;;;;;14.20;8.40;;;;;;;-140.66;100.00;55571.53;5040399;28;20445;-73
2022/09/05 06:45:49;;;;;;;12.35;8.63;;;;;;;-140.66;100.00;55571.53;5054126;28;20116;-73
2022/09/05 06:48:53;;;;;;;14.52;9.07;;;;;;;-140.66;100.00;55571.53;5054205;28;20040;-73
2022/09/05 06:51:57;;;;;;;16.08;9.95;;;;;;;-140.66;100.00;55571.53;5054272;28;20021;-72
2022/09/05 06:54:51;;;;;;;14.18;9.43;;;;;;;-140.66;100.00;55571.53;5055052;28;20096;-72
2022/09/05 06:57:52;;;;;;;12.48;8.93;;;;;;;-140.66;100.00;55571.53;5054997;28;20044;-72
2022/09/05 07:00:57;;;;;;;12.85;9.13;;;;;;;-140.66;100.00;55571.53;5040481;28;20029;-72
2022/09/05 07:03:45;;;;;;;13.32;8.32;;;;;;;-140.66;100.00;55571.53;5054356;28;20384;-73
2022/09/05 07:07:01;;;;;;;12.27;8.48;;;;;;;-140.66;100.00;55571.53;5053637;28;20036;-72
2022/09/05 07:10:03;;;;;;;11.98;8.50;;;;;;;-140.66;100.00;55571.53;5054967;28;20130;-73
2022/09/05 07:12:58;;;;;;;10.88;7.70;;;;;;;-140.66;100.00;55571.53;5054051;28;20463;-72
2022/09/05 07:16:10;;;;;;;11.95;8.18;;;;;;;-140.66;100.00;55571.53;5053577;28;20203;-74
2022/09/05 07:19:42;;;;;;;10.98;7.85;;;;;;;-140.66;100.00;55571.53;5054577;28;20108;-73
2022/09/05 07:22:44;;;;;;;12.38;7.05;;;;;;;-140.66;100.00;55571.53;5054672;28;20043;-72
2022/09/05 07:25:31;;;;;;;11.93;6.75;;;;;;;-140.66;100.00;55571.53;5053342;28;20110;-72
2022/09/05 07:28:19;;;;;;;9.82;6.40;;;;;;;-140.66;100.00;55571.53;5054003;28;20488;-72
2022/09/05 07:31:21;;;;;;;11.52;6.05;;;;;;;-140.66;100.00;55571.53;5038500;28;20116;-73
2022/09/05 07:34:21;;;;;;;8.13;5.68;;;;;;;-140.66;100.00;55571.53;5052781;28;20065;-72
2022/09/05 07:37:19;;;;;;;9.60;6.45;;;;;;;-140.66;100.00;55571.53;5039756;28;20033;-71
2022/09/05 07:40:10;;;;;;;9.15;5.10;;;;;;;-140.66;100.00;55571.53;5053599;28;20025;-72
2022/09/05 07:43:18;;;;;;;7.18;3.92;;;;;;;-140.66;100.00;55571.53;5053849;28;20028;-73
2022/09/05 07:46:22;;;;;;;9.40;5.28;;;;;;;-140.66;100.00;55571.53;5053622;28;20033;-73
2022/09/05 07:49:15;;;;;;;6.95;5.80;;;;;;;-140.66;100.00;55571.53;5053256;28;20067;-73
2022/09/05 07:52:09;;;;;;;11.00;6.75;;;;;;;-140.66;100.00;55571.53;5054252;28;20036;-72
2022/09/05 07:55:00;;;;;;;8.98;6.63;;;;;;;-140.66;100.00;55571.53;5054116;28;20090;-72
2022/09/05 07:57:47;;;;;;;9.43;6.88;;;;;;;-140.66;100.00;55571.53;5053515;28;20076;-73
2022/09/05 08:00:35;;;;;;;10.18;7.25;;;;;;;-140.66;100.00;55571.53;5039206;28;20029;-72
2022/09/05 08:03:30;;;;;;;14.65;8.65;;;;;;;-140.66;100.00;55571.53;5053758;28;20029;-73
2022/09/05 08:06:24;;;;;;;14.32;8.75;;;;;;;-140.66;100.00;55571.53;5052886;28;20040;-73
2022/09/05 08:09:34;;;;;;;12.13;8.40;;;;;;;-140.66;100.00;55571.53;5053738;28;20048;-72
2022/09/05 08:12:42;;;;;;;12.50;7.80;;;;;;;-140.66;100.00;55571.53;5053165;28;20090;-71
2022/09/05 08:15:29;;;;;;;12.05;8.02;;;;;;;-140.66;100.00;55571.53;5053163;28;20086;-75
2022/09/05 08:18:37;;;;;;;12.55;7.05;;;;;;;-140.66;100.00;55571.53;5053086;28;20029;-76
2022/09/05 08:21:39;;;;;;;8.75;5.78;;;;;;;-140.66;100.00;55571.53;5053102;28;20053;-76
2022/09/05 08:24:27;;;;;;;11.07;6.15;;;;;;;-140.66;100.00;55571.53;5052836;28;20029;-75
2022/09/05 08:27:24;;;;;;;8.35;5.97;;;;;;;-140.66;100.00;55571.53;5052870;28;20420;-76
2022/09/05 08:30:12;;;;;;;7.75;5.10;;;;;;;-140.66;100.00;55571.53;5053061;28;20061;-75
2022/09/05 08:33:03;;;;;;;6.35;4.57;;;;;;;-140.66;100.00;55571.53;5053138;28;20032;-76
2022/09/05 08:35:59;;;;;;;7.68;4.50;;;;;;;-140.66;100.00;55571.53;5052875;28;20032;-76
2022/09/05 08:38:45;;;;;;;7.85;4.50;;;;;;;-140.66;100.00;55571.53;5056865;28;20044;-75
2022/09/05 08:41:56;;;;;;;10.65;5.13;;;;;;;-140.66;100.00;55571.53;5045147;28;20036;-76
2022/09/05 08:45:17;;;;;;;6.85;5.57;;;;;;;-140.66;100.00;55571.53;5042330;28;20075;-76
2022/09/05 08:48:25;;;;;;;6.45;4.80;;;;;;;-140.66;100.00;55571.53;5056388;28;20031;-76
2022/09/05 08:51:33;;;;;;;6.15;5.00;;;;;;;-140.66;100.00;55571.53;5056358;28;20040;-77
2022/09/05 08:54:51;;;;;;;6.47;4.80;;;;;;;-140.66;100.00;55571.53;5057409;28;20098;-76
2022/09/05 08:57:55;;;;;;;8.20;4.82;;;;;;;-140.66;100.00;55571.53;5043378;28;20045;-76
2022/09/05 09:01:08;;;;;;;9.90;5.63;;;;;;;-140.66;100.00;55571.53;5056132;28;20057;-76
2022/09/05 09:04:18;;;;;;;6.80;4.47;;;;;;;-140.66;100.00;55571.53;5057652;28;20100;-76
2022/09/05 09:07:26;;;;;;;7.03;4.10;;;;;;;-140.66;100.00;55571.53;5057379;28;20040;-75
2022/09/05 09:10:42;;;;;;;7.07;3.90;;;;;;;-140.66;100.00;55571.53;5055793;28;20106;-76
2022/09/05 09:13:53;;;;;;;4.90;3.75;;;;;;;-140.66;100.00;55571.53;5056475;28;20111;-76
2022/09/05 09:16:52;;;;;;;5.45;4.20;;;;;;;-140.66;100.00;55571.53;5057051;28;20317;-77
2022/09/05 09:19:49;;;;;;;4.90;3.28;;;;;;;-140.66;100.00;55571.53;5055816;28;20055;-76
2022/09/05 09:22:43;;;;;;;5.95;4.05;;;;;;;-140.66;100.00;55571.53;5055422;28;20033;-75
2022/09/05 09:25:42;;;;;;;5.10;3.92;;;;;;;-140.66;100.00;55571.53;5056835;28;20112;-76
2022/09/05 09:28:43;;;;;;;6.05;3.72;;;;;;;-140.66;100.00;55571.53;5041819;28;20020;-75
2022/09/05 09:32:01;;;;;;;5.35;4.00;;;;;;;-140.66;100.00;55571.53;5055689;28;20100;-75
2022/09/05 09:35:04;;;;;;;7.55;3.80;;;;;;;-140.66;100.00;55571.53;5055773;28;20029;-76
2022/09/05 09:38:10;;;;;;;4.90;3.30;;;;;;;-140.66;100.00;55571.53;5056318;28;20025;-76
2022/09/05 09:41:28;;;;;;;5.30;4.07;;;;;;;-140.66;100.00;55571.53;5055381;28;20090;-76
2022/09/05 09:44:14;;;;;;;8.35;4.80;;;;;;;-140.66;100.00;55571.53;5001841;28;20128;-76
2022/09/05 09:47:09;;;;;;;8.20;5.00;;;;;;;-140.66;100.00;55571.53;5055711;28;20060;-76
2022/09/05 09:50:06;;;;;;;5.18;4.55;;;;;;;-140.66;100.00;55571.53;5055847;28;20027;-76
2022/09/05 09:53:13;;;;;;;6.63;4.50;;;;;;;-140.66;100.00;55571.53;5041901;28;20029;-77
2022/09/05 09:56:24;;;;;;;8.88;4.95;;;;;;;-140.66;100.00;55571.53;5056125;28;20048;-77
2022/09/05 09:59:25;;;;;;;5.82;4.70;;;;;;;-140.66;100.00;55571.53;5054483;28;20361;-73
2022/09/05 10:02:20;;;;;;;6.38;4.70;;;;;;;-140.66;100.00;55571.53;5055306;28;20482;-73
2022/09/05 10:05:43;;;;;;;6.25;4.88;;;;;;;-140.66;100.00;55571.53;5055189;28;20041;-73
2022/09/05 10:08:36;;;;;;;7.15;5.03;;;;;;;-140.66;100.00;55571.53;5040751;28;20029;-73
2022/09/05 10:11:40;;;;;;;5.68;4.30;;;;;;;-140.66;100.00;55571.53;5040717;28;20104;-73
2022/09/05 10:14:48;;;;;;;6.85;4.60;;;;;;;-140.66;100.00;55571.53;5040628;28;20029;-73
2022/09/05 10:17:58;;;;;;;5.25;4.57;;;;;;;-140.66;100.00;55571.53;5040525;28;20033;-72
2022/09/05 10:21:08;;;;;;;8.13;4.75;;;;;;;-140.66;100.00;55571.53;5056056;28;20365;-72
2022/09/05 10:24:09;;;;;;;5.88;4.30;;;;;;;-140.66;100.00;55571.53;5055314;28;20040;-72
2022/09/05 10:27:19;;;;;;;5.82;4.40;;;;;;;-140.66;100.00;55571.53;5055901;28;20490;-74
2022/09/05 10:30:08;;;;;;;8.45;4.80;;;;;;;-140.66;100.00;55571.53;5054888;28;20353;-73
2022/09/05 10:33:02;;;;;;;5.45;4.30;;;;;;;-140.66;100.00;55571.53;5054261;28;20044;-73
2022/09/05 10:35:50;;;;;;;6.60;4.65;;;;;;;-140.66;100.00;55571.53;5040594;28;20033;-73
2022/09/05 10:38:43;;;;;;;5.25;4.53;;;;;;;-140.66;100.00;55571.53;5055477;28;20033;-74
2022/09/05 10:41:42;;;;;;;7.28;4.78;;;;;;;-140.66;100.00;55571.53;5054152;28;20032;-73
2022/09/05 10:44:40;;;;;;;7.07;4.97;;;;;;;-140.66;100.00;55571.53;5040006;28;20028;-73
2022/09/05 10:47:47;;;;;;;8.90;4.75;;;;;;;-140.66;100.00;55571.53;5054437;28;20112;-74
2022/09/05 10:50:41;;;;;;;5.28;4.20;;;;;;;-140.66;100.00;55571.53;5053924;28;20055;-74
2022/09/05 10:53:45;;;;;;;7.78;4.72;;;;;;;-140.66;100.00;55571.53;5054527;28;20031;-74
2022/09/05 10:56:41;;;;;;;4.72;4.22;;;;;;;-140.66;100.00;55571.53;5039810;28;20466;-74
2022/09/05 10:59:48;;;;;;;4.95;4.30;;;;;;;-140.66;100.00;55571.53;5053617;28;20028;-73
2022/09/05 11:02:40;;;;;;;7.13;4.75;;;;;;;-140.66;100.00;55571.53;5053947;28;20033;-74
2022/09/05 11:05:29;;;;;;;8.10;4.68;;;;;;;-140.66;100.00;55571.53;5053520;28;20029;-73
2022/09/05 11:08:42;;;;;;;5.40;4.53;;;;;;;-140.66;100.00;55571.53;5053720;28;20066;-73
2022/09/05 11:11:41;;;;;;;4.95;4.20;;;;;;;-140.66;100.00;55571.53;5039051;28;20060;-73
2022/09/05 11:14:56;;;;;;;8.23;4.47;;;;;;;-140.66;100.00;55571.53;5053681;28;20425;-73
2022/09/05 11:17:56;;;;;;;5.35;4.75;;;;;;;-140.66;100.00;55571.53;5054573;28;20118;-73
2022/09/05 11:20:42;;;;;;;7.80;4.30;;;;;;;-140.66;100.00;55571.53;5039847;28;20025;-73
2022/09/05 11:23:39;;;;;;;6.72;4.70;;;;;;;-140.66;100.00;55571.53;5053503;28;20043;-72
2022/09/05 11:26:45;;;;;;;5.90;4.65;;;;;;;-140.66;100.00;55571.53;5053812;28;20111;-73
2022/09/05 11:29:45;;;;;;;5.65;4.32;;;;;;;-140.66;100.00;55571.53;5053249;28;20416;-72
2022/09/05 11:33:01;;;;;;;5.60;4.70;;;;;;;-140.66;100.00;55571.53;5054937;28;20075;-72
2022/09/05 11:36:07;;;;;;;9.40;4.10;;;;;;;-140.66;100.00;55571.53;5054789;28;20031;-73
2022/09/05 11:38:59;;;;;;;6.05;4.10;;;;;;;-140.66;100.00;55571.53;5053031;28;20044;-73
2022/09/05 11:41:57;;;;;;;7.90;4.38;;;;;;;-140.66;100.00;55571.53;5053191;28;20408;-74
2022/09/05 11:45:23;;;;;;;4.53;4.00;;;;;;;-140.66;100.00;55571.53;5053207;28;20427;-73
2022/09/05 11:48:36;;;;;;;9.20;4.10;;;;;;;-140.66;100.00;55571.53;5052443;28;20033;-72
2022/09/05 11:51:52;;;;;;;5.13;4.05;;;;;;;-140.66;100.00;55571.53;5053538;28;20025;-72
2022/09/05 11:54:59;;;;;;;4.72;3.88;;;;;;;-140.66;100.00;55571.53;5053243;28;20021;-73
2022/09/05 11:57:58;;;;;;;5.70;4.10;;;;;;;-140.66;100.00;55571.53;5053414;28;20041;-73
2022/09/05 12:00:57;;;;;;;5.45;3.70;;;;;;;-140.66;100.00;55571.53;5053225;28;20479;-73
2022/09/05 12:04:05;;;;;;;6.88;4.00;;;;;;;-140.66;100.00;55571.53;5053164;28;20029;-73
2022/09/05 12:07:26;;;;;;;9.15;4.13;;;;;;;-140.66;100.00;55571.53;5053025;28;20025;-73
2022/09/05 12:10:21;;;;;;;5.40;3.65;;;;;;;-140.66;100.00;55571.53;5053297;28;20013;-73
2022/09/05 12:13:38;;;;;;;5.68;3.80;;;;;;;-140.66;100.00;55571.53;5053883;28;20044;-72
2022/09/05 12:16:51;;;;;;;4.40;3.90;;;;;;;-140.66;100.00;55571.53;5053277;28;20465;-73
2022/09/05 12:19:40;;;;;;;4.20;3.40;;;;;;;-140.66;100.00;55571.53;5039311;28;20029;-73
2022/09/05 12:22:28;;;;;;;7.22;3.70;;;;;;;-140.66;100.00;55571.53;5056999;28;20082;-74
2022/09/05 12:25:49;;;;;;;6.47;3.88;;;;;;;-140.66;100.00;55571.53;5056936;28;20028;-73
2022/09/05 12:28:39;;;;;;;4.47;3.70;;;;;;;-140.66;100.00;55571.53;5057592;28;20044;-75
2022/09/05 12:31:37;;;;;;;4.78;3.90;;;;;;;-140.66;100.00;55571.53;5042814;28;20292;-73
2022/09/05 12:34:48;;;;;;;4.80;3.70;;;;;;;-140.66;100.00;55571.53;5043342;28;20028;-73
2022/09/05 12:37:51;;;;;;;6.70;4.10;;;;;;;-140.66;100.00;55571.53;5042510;28;20039;-72
2022/09/05 12:40:40;;;;;;;5.45;4.78;;;;;;;-140.66;100.00;55571.53;5056608;28;20082;-72
2022/09/05 12:43:26;;;;;;;4.75;3.95;;;;;;;-140.66;100.00;55571.53;5042883;28;20149;-73
2022/09/05 12:46:26;;;;;;;8.48;3.47;;;;;;;-140.66;100.00;55571.53;5056495;28;20433;-73
2022/09/05 12:49:25;;;;;;;5.93;3.80;;;;;;;-140.66;100.00;55571.53;5056743;28;20063;-73
2022/09/05 12:52:17;;;;;;;4.80;3.75;;;;;;;-140.66;100.00;55571.53;5042494;28;20028;-74
2022/09/05 12:55:11;;;;;;;5.60;3.88;;;;;;;-140.66;100.00;55571.53;5056248;28;20037;-73
2022/09/05 12:58:09;;;;;;;5.72;3.60;;;;;;;-140.66;100.00;55571.53;5042147;28;20108;-74
2022/09/05 13:01:16;;;;;;;5.57;4.30;;;;;;;-140.66;100.00;55571.53;5056186;28;20032;-74
2022/09/05 13:04:17;;;;;;;6.85;3.80;;;;;;;-140.66;100.00;55571.53;5056211;28;20040;-73
2022/09/05 13:07:08;;;;;;;6.38;4.13;;;;;;;-140.66;100.00;55571.53;5056700;28;20334;-74
2022/09/05 13:09:58;;;;;;;4.75;3.80;;;;;;;-140.66;100.00;55571.53;5057081;28;20025;-73
2022/09/05 13:12:57;;;;;;;7.47;4.05;;;;;;;-140.66;100.00;55571.53;5041699;28;20021;-74
2022/09/05 13:15:49;;;;;;;8.23;4.30;;;;;;;-140.66;100.00;55571.53;5056564;28;20112;-73
2022/09/05 13:18:41;;;;;;;6.80;4.00;;;;;;;-140.66;100.00;55571.53;5056135;28;20090;-73
2022/09/05 13:21:29;;;;;;;8.27;3.90;;;;;;;-140.66;100.00;55571.53;5055418;28;20040;-73
2022/09/05 13:24:26;;;;;;;7.60;4.22;;;;;;;-140.66;100.00;55571.53;5056260;28;20369;-74
2022/09/05 13:27:25;;;;;;;5.93;4.05;;;;;;;-140.66;100.00;55571.53;5055983;28;20111;-73
2022/09/05 13:30:14;;;;;;;8.07;4.13;;;;;;;-140.66;100.00;55571.53;5059960;28;20104;-73
2022/09/05 13:33:09;;;;;;;7.47;3.65;;;;;;;-140.66;100.00;55571.53;5064751;28;20036;-72
2022/09/05 13:36:04;;;;;;;4.63;3.95;;;;;;;-140.66;100.00;55571.53;5065046;28;20430;-72
2022/09/05 13:38:54;;;;;;;9.82;4.00;;;;;;;-140.66;100.00;55571.53;5064821;28;20111;-72
2022/09/05 13:41:48;;;;;;;5.45;3.88;;;;;;;-140.66;100.00;55571.53;5058796;28;20033;-75
2022/09/05 13:44:40;;;;;;;4.63;3.85;;;;;;;-140.66;100.00;55571.53;5063755;28;20029;-73
2022/09/05 13:47:41;;;;;;;10.43;4.43;;;;;;;-140.66;100.00;55571.53;5065020;28;20052;-73
2022/09/05 13:50:32;;;;;;;5.45;4.50;;;;;;;-140.66;100.00;55571.53;5062013;28;20108;-72